Time;durP1;ratioP1;P1;durP2;ratioP2;P2;SDS_P1;SDS_P2;PMS_P1;PMS_P2;Temp;Humidity;BMP_temperature;BMP_pressure;BME280_temperature;BME280_humidity;BME280_pressure;Samples;Min_cycle;Max_cycle;Signal;HPM_P1;HPM_P2
2021/10/08 00:00:02;;;;;;;;;;;;;;;;;;2100511;28;5356;-71
2021/10/08 00:01:03;;;;;;;;;;;;;;;;;;2102988;28;4512;-71
2021/10/08 00:02:03;;;;;;;;;;;;;;;;;;2101988;28;4549;-72
2021/10/08 00:03:07;;;;;;;;;;;;;;;;;;2101131;28;4488;-71
2021/10/08 00:04:07;;;;;;;;;;;;;;;;;;2103280;28;1061;-72
2021/10/08 00:05:09;;;;;;;;;;;;;;;;;;2102500;28;4852;-72
2021/10/08 00:06:09;;;;;;;;;;;;;;;;;;2103141;28;4892;-71
2021/10/08 00:07:10;;;;;;;;;;;;;;;;;;2102433;28;1952;-72
2021/10/08 00:08:11;;;;;;;;;;;;;;;;;;2102812;28;4070;-71
2021/10/08 00:09:11;;;;;;;;;;;;;;;;;;2101015;28;4401;-71
2021/10/08 00:10:12;;;;;;;;;;;;;;;;;;2101887;28;3967;-71
2021/10/08 00:11:13;;;;;;;;;;;;;;;;;;2102859;27;1317;-72
2021/10/08 00:12:13;;;;;;;;;;;;;;;;;;2102022;28;1256;-71
2021/10/08 00:13:16;;;;;;;;;;;;;;;;;;2101189;28;4671;-72
2021/10/08 00:14:16;;;;;;;;;;;;;;;;;;2100270;28;4860;-72
2021/10/08 00:15:17;;;;;;;;;;;;;;;;;;2099662;28;5308;-72
2021/10/08 00:16:18;;;;;;;;;;;;;;;;;;2099933;27;5072;-72
2021/10/08 00:17:19;;;;;;;;;;;;;;;;;;2101848;28;5096;-72
2021/10/08 00:18:19;;;;;;;;;;;;;;;;;;2100278;28;3576;-71
2021/10/08 00:19:20;;;;;;;;;;;;;;;;;;2101579;28;4927;-71
2021/10/08 00:20:20;;;;;;;;;;;;;;;;;;2100558;28;5158;-71
2021/10/08 00:21:22;;;;;;;;;;;;;;;;;;2102838;28;1297;-71
2021/10/08 00:22:22;;;;;;;;;;;;;;;;;;2101272;28;5103;-72
2021/10/08 00:23:23;;;;;;;;;;;;;;;;;;2102905;28;1049;-72
2021/10/08 00:24:23;;;;;;;;;;;;;;;;;;2100808;28;4503;-72
2021/10/08 00:25:24;;;;;;;;;;;;;;;;;;2099655;28;5170;-72
2021/10/08 00:26:24;;;;;;;;;;;;;;;;;;2102601;28;1135;-71
2021/10/08 00:27:25;;;;;;;;;;;;;;;;;;2101311;28;5412;-71
2021/10/08 00:28:26;;;;;;;;;;;;;;;;;;2101731;27;4852;-71
2021/10/08 00:29:29;;;;;;;;;;;;;;;;;;2101396;28;4605;-71
2021/10/08 00:30:29;;;;;;;;;;;;;;;;;;2102063;28;1228;-71
2021/10/08 00:31:30;;;;;;;;;;;;;;;;;;2102152;28;4781;-71
2021/10/08 00:32:30;;;;;;;;;;;;;;;;;;2101414;28;5129;-72
2021/10/08 00:33:31;;;;;;;;;;;;;;;;;;2102645;28;1398;-71
2021/10/08 00:34:32;;;;;;;;;;;;;;;;;;2102901;28;2662;-71
2021/10/08 00:35:33;;;;;;;;;;;;;;;;;;2103656;28;1419;-72
2021/10/08 00:36:33;;;;;;;;;;;;;;;;;;2103946;28;1298;-71
2021/10/08 00:37:34;;;;;;;;;;;;;;;;;;2102950;28;2422;-71
2021/10/08 00:38:34;;;;;;;;;;;;;;;;;;2104047;28;4945;-72
2021/10/08 00:39:35;;;;;;;;;;;;;;;;;;2102566;28;1102;-71
2021/10/08 00:40:35;;;;;;;;;;;;;;;;;;2104062;28;1380;-71
2021/10/08 00:41:37;;;;;;;;;;;;;;;;;;2105639;28;1371;-72
2021/10/08 00:42:37;;;;;;;;;;;;;;;;;;2105010;28;1280;-71
2021/10/08 00:43:38;;;;;;;;;;;;;;;;;;2104264;28;1300;-72
2021/10/08 00:44:38;;;;;;;;;;;;;;;;;;2105651;27;1351;-72
2021/10/08 00:45:39;;;;;;;;;;;;;;;;;;2105270;28;1443;-72
2021/10/08 00:46:39;;;;;;;;;;;;;;;;;;2104534;28;1161;-71
2021/10/08 00:47:40;;;;;;;;;;;;;;;;;;2105147;28;1202;-71
2021/10/08 00:48:40;;;;;;;;;;;;;;;;;;2104336;28;4920;-71
2021/10/08 00:49:41;;;;;;;;;;;;;;;;;;2104120;28;1909;-72
2021/10/08 00:50:43;;;;;;;;;;;;;;;;;;2104455;28;4958;-71
2021/10/08 00:51:43;;;;;;;;;;;;;;;;;;2100819;28;4903;-71
2021/10/08 00:52:44;;;;;;;;;;;;;;;;;;2102364;28;1137;-72
2021/10/08 00:53:44;;;;;;;;;;;;;;;;;;2102002;28;1265;-72
2021/10/08 00:54:45;;;;;;;;;;;;;;;;;;2102468;28;1137;-72
2021/10/08 00:55:48;;;;;;;;;;;;;;;;;;2101548;28;1299;-71
2021/10/08 00:56:49;;;;;;;;;;;;;;;;;;2102073;28;1289;-71
2021/10/08 00:57:49;;;;;;;;;;;;;;;;;;2102456;28;1143;-71
2021/10/08 00:58:50;;;;;;;;;;;;;;;;;;2101676;28;4903;-72
2021/10/08 00:59:50;;;;;;;;;;;;;;;;;;2102750;28;1410;-72
2021/10/08 01:00:51;;;;;;;;;;;;;;;;;;2101966;28;1368;-72
2021/10/08 01:01:51;;;;;;;;;;;;;;;;;;2101711;28;1036;-71
2021/10/08 01:02:52;;;;;;;;;;;;;;;;;;2102594;28;1233;-71
2021/10/08 01:03:53;;;;;;;;;;;;;;;;;;2101679;28;1108;-72
2021/10/08 01:04:56;;;;;;;;;;;;;;;;;;2102518;28;1197;-72
2021/10/08 01:05:56;;;;;;;;;;;;;;;;;;2100241;28;1253;-71
2021/10/08 01:06:58;;;;;;;;;;;;;;;;;;2102364;28;1189;-71
2021/10/08 01:07:58;;;;;;;;;;;;;;;;;;2102250;28;1185;-71
2021/10/08 01:08:59;;;;;;;;;;;;;;;;;;2101147;27;4616;-72
2021/10/08 01:09:59;;;;;;;;;;;;;;;;;;2101383;28;1913;-71
2021/10/08 01:11:00;;;;;;;;;;;;;;;;;;2099325;28;4589;-72
2021/10/08 01:12:00;;;;;;;;;;;;;;;;;;2102010;28;4943;-71
2021/10/08 01:13:01;;;;;;;;;;;;;;;;;;2102672;28;1394;-72
2021/10/08 01:14:05;;;;;;;;;;;;;;;;;;2101166;28;3237;-71
2021/10/08 01:15:06;;;;;;;;;;;;;;;;;;2102264;28;1194;-71
2021/10/08 01:16:06;;;;;;;;;;;;;;;;;;2103156;28;1157;-72
2021/10/08 01:17:07;;;;;;;;;;;;;;;;;;2102525;28;1355;-71
2021/10/08 01:18:07;;;;;;;;;;;;;;;;;;2103009;28;1221;-72
2021/10/08 01:19:08;;;;;;;;;;;;;;;;;;2101777;28;4885;-72
2021/10/08 01:20:08;;;;;;;;;;;;;;;;;;2102683;28;1546;-70
2021/10/08 01:21:09;;;;;;;;;;;;;;;;;;2101604;28;1347;-71
2021/10/08 01:22:09;;;;;;;;;;;;;;;;;;2102483;28;1109;-72
2021/10/08 01:23:11;;;;;;;;;;;;;;;;;;2102651;28;1229;-72
2021/10/08 01:24:11;;;;;;;;;;;;;;;;;;2102829;28;1033;-72
2021/10/08 01:25:12;;;;;;;;;;;;;;;;;;2101032;28;4817;-70
2021/10/08 01:26:12;;;;;;;;;;;;;;;;;;2101989;28;1177;-72
2021/10/08 01:27:13;;;;;;;;;;;;;;;;;;2100840;28;2700;-71
2021/10/08 01:28:13;;;;;;;;;;;;;;;;;;2101616;28;1200;-72
2021/10/08 01:29:14;;;;;;;;;;;;;;;;;;2099406;27;3098;-72
2021/10/08 01:30:21;;;;;;;;;;;;;;;;;;2099558;28;4124;-71
2021/10/08 01:31:22;;;;;;;;;;;;;;;;;;2098419;27;6183;-71
2021/10/08 01:32:22;;;;;;;;;;;;;;;;;;2101009;27;5611;-71
2021/10/08 01:33:23;;;;;;;;;;;;;;;;;;2100035;28;5145;-71
2021/10/08 01:34:23;;;;;;;;;;;;;;;;;;2100838;28;1466;-72
2021/10/08 01:35:25;;;;;;;;;;;;;;;;;;2100314;28;4919;-72
2021/10/08 01:36:25;;;;;;;;;;;;;;;;;;2100826;28;1359;-71
2021/10/08 01:37:26;;;;;;;;;;;;;;;;;;2101506;28;1092;-71
2021/10/08 01:38:26;;;;;;;;;;;;;;;;;;2098013;28;5111;-72
2021/10/08 01:39:29;;;;;;;;;;;;;;;;;;2099500;28;3124;-72
2021/10/08 01:40:29;;;;;;;;;;;;;;;;;;2101206;28;1369;-71
2021/10/08 01:41:30;;;;;;;;;;;;;;;;;;2101499;28;1658;-72
2021/10/08 01:42:30;;;;;;;;;;;;;;;;;;2101843;28;1425;-72
2021/10/08 01:43:31;;;;;;;;;;;;;;;;;;2100744;28;4484;-71
2021/10/08 01:44:31;;;;;;;;;;;;;;;;;;2101478;28;4836;-71
2021/10/08 01:45:32;;;;;;;;;;;;;;;;;;2100508;28;4929;-72
2021/10/08 01:46:32;;;;;;;;;;;;;;;;;;2102007;28;1162;-72
2021/10/08 01:47:34;;;;;;;;;;;;;;;;;;2100547;28;5088;-72
2021/10/08 01:48:37;;;;;;;;;;;;;;;;;;2099962;28;5564;-71
2021/10/08 01:49:38;;;;;;;;;;;;;;;;;;2101776;28;4882;-71
2021/10/08 01:50:38;;;;;;;;;;;;;;;;;;2100958;28;4892;-71
2021/10/08 01:51:39;;;;;;;;;;;;;;;;;;2102993;28;1502;-72
2021/10/08 01:52:39;;;;;;;;;;;;;;;;;;2102831;27;1197;-71
2021/10/08 01:53:40;;;;;;;;;;;;;;;;;;2102653;27;1481;-71
2021/10/08 01:54:40;;;;;;;;;;;;;;;;;;2101316;28;2802;-72
2021/10/08 01:55:41;;;;;;;;;;;;;;;;;;2103071;28;1077;-71
2021/10/08 01:56:44;;;;;;;;;;;;;;;;;;2102526;28;1238;-72
2021/10/08 01:57:45;;;;;;;;;;;;;;;;;;2103201;28;1125;-72
2021/10/08 01:58:45;;;;;;;;;;;;;;;;;;2102787;27;4944;-71
2021/10/08 01:59:47;;;;;;;;;;;;;;;;;;2103569;28;1173;-71
2021/10/08 02:00:47;;;;;;;;;;;;;;;;;;2103177;28;1364;-71
2021/10/08 02:01:48;;;;;;;;;;;;;;;;;;2103515;28;1220;-71
2021/10/08 02:02:48;;;;;;;;;;;;;;;;;;2103820;28;1354;-72
2021/10/08 02:03:50;;;;;;;;;;;;;;;;;;2104612;28;1169;-72
2021/10/08 02:04:51;;;;;;;;;;;;;;;;;;2103922;28;4287;-71
2021/10/08 02:05:52;;;;;;;;;;;;;;;;;;2102511;28;4959;-72
2021/10/08 02:06:52;;;;;;;;;;;;;;;;;;2103938;28;4173;-71
2021/10/08 02:07:54;;;;;;;;;;;;;;;;;;2104549;27;2311;-71
2021/10/08 02:08:54;;;;;;;;;;;;;;;;;;2103930;28;3523;-72
2021/10/08 02:09:59;;;;;;;;;;;;;;;;;;2103693;27;1988;-72
2021/10/08 02:11:00;;;;;;;;;;;;;;;;;;2098677;28;2079;-72
2021/10/08 02:12:00;;;;;;;;;;;;;;;;;;2098935;28;1204;-71
2021/10/08 02:13:01;;;;;;;;;;;;;;;;;;2099857;28;1157;-72
2021/10/08 02:14:01;;;;;;;;;;;;;;;;;;2101012;28;1230;-72
2021/10/08 02:15:02;;;;;;;;;;;;;;;;;;2100774;28;2919;-71
2021/10/08 02:16:02;;;;;;;;;;;;;;;;;;2100275;28;5112;-72
2021/10/08 02:17:07;;;;;;;;;;;;;;;;;;2101302;28;1320;-71
2021/10/08 02:18:07;;;;;;;;;;;;;;;;;;2101389;28;1090;-71
2021/10/08 02:19:08;;;;;;;;;;;;;;;;;;2100324;28;2766;-71
2021/10/08 02:20:08;;;;;;;;;;;;;;;;;;2100739;28;1356;-71
2021/10/08 02:21:09;;;;;;;;;;;;;;;;;;2099241;28;4887;-71
2021/10/08 02:22:09;;;;;;;;;;;;;;;;;;2099853;28;1268;-71
2021/10/08 02:23:10;;;;;;;;;;;;;;;;;;2101239;28;1076;-71
2021/10/08 02:24:10;;;;;;;;;;;;;;;;;;2101044;28;1088;-71
2021/10/08 02:25:12;;;;;;;;;;;;;;;;;;2101525;28;1107;-71
2021/10/08 02:26:12;;;;;;;;;;;;;;;;;;2101105;28;4876;-72
2021/10/08 02:27:13;;;;;;;;;;;;;;;;;;2101261;28;1103;-72
2021/10/08 02:28:13;;;;;;;;;;;;;;;;;;2101350;28;1157;-72
2021/10/08 02:29:14;;;;;;;;;;;;;;;;;;2100517;28;4512;-71
2021/10/08 02:30:15;;;;;;;;;;;;;;;;;;2100160;28;4680;-71
2021/10/08 02:31:15;;;;;;;;;;;;;;;;;;2101044;28;4745;-72
2021/10/08 02:32:19;;;;;;;;;;;;;;;;;;2100959;28;1272;-71
2021/10/08 02:33:19;;;;;;;;;;;;;;;;;;2101371;28;2302;-71
2021/10/08 02:34:21;;;;;;;;;;;;;;;;;;2101538;28;2665;-71
2021/10/08 02:35:21;;;;;;;;;;;;;;;;;;2101441;28;1380;-71
2021/10/08 02:36:24;;;;;;;;;;;;;;;;;;2101542;28;1178;-72
2021/10/08 02:37:25;;;;;;;;;;;;;;;;;;2101509;28;1115;-71
2021/10/08 02:38:25;;;;;;;;;;;;;;;;;;2101159;28;4872;-71
2021/10/08 02:39:26;;;;;;;;;;;;;;;;;;2101207;28;4077;-72
2021/10/08 02:40:26;;;;;;;;;;;;;;;;;;2101874;28;1431;-71
2021/10/08 02:41:27;;;;;;;;;;;;;;;;;;2102140;28;1059;-71
2021/10/08 02:42:28;;;;;;;;;;;;;;;;;;2101205;28;4910;-72
2021/10/08 02:43:29;;;;;;;;;;;;;;;;;;2101148;28;5209;-71
2021/10/08 02:44:29;;;;;;;;;;;;;;;;;;2102265;28;1237;-71
2021/10/08 02:45:30;;;;;;;;;;;;;;;;;;2101245;28;1408;-71
2021/10/08 02:46:30;;;;;;;;;;;;;;;;;;2101236;28;1480;-71
2021/10/08 02:47:31;;;;;;;;;;;;;;;;;;2100783;28;3110;-71
2021/10/08 02:48:31;;;;;;;;;;;;;;;;;;2098333;28;5414;-71
2021/10/08 02:49:32;;;;;;;;;;;;;;;;;;2100539;27;1129;-72
2021/10/08 02:50:32;;;;;;;;;;;;;;;;;;2100403;28;1992;-72
2021/10/08 02:51:35;;;;;;;;;;;;;;;;;;2099150;28;5395;-71
2021/10/08 02:52:35;;;;;;;;;;;;;;;;;;2099870;28;4958;-72
2021/10/08 02:53:36;;;;;;;;;;;;;;;;;;2099311;28;5190;-71
2021/10/08 02:54:37;;;;;;;;;;;;;;;;;;2100373;28;1186;-71
2021/10/08 02:55:38;;;;;;;;;;;;;;;;;;2101160;28;1102;-71
2021/10/08 02:56:39;;;;;;;;;;;;;;;;;;2100663;28;1009;-71
2021/10/08 02:57:39;;;;;;;;;;;;;;;;;;2100556;28;4832;-71
2021/10/08 02:58:40;;;;;;;;;;;;;;;;;;2100147;28;5093;-71
2021/10/08 02:59:40;;;;;;;;;;;;;;;;;;2100186;28;4749;-71
2021/10/08 03:00:42;;;;;;;;;;;;;;;;;;2100906;28;5133;-72
2021/10/08 03:01:42;;;;;;;;;;;;;;;;;;2099137;28;5742;-72
2021/10/08 03:02:44;;;;;;;;;;;;;;;;;;2099781;28;4769;-71
2021/10/08 03:03:44;;;;;;;;;;;;;;;;;;2100521;28;1462;-71
2021/10/08 03:04:46;;;;;;;;;;;;;;;;;;2097096;28;4995;-71
2021/10/08 03:05:46;;;;;;;;;;;;;;;;;;2099145;28;5426;-72
2021/10/08 03:06:47;;;;;;;;;;;;;;;;;;2101061;28;5596;-72
2021/10/08 03:07:47;;;;;;;;;;;;;;;;;;2099234;28;4419;-71
2021/10/08 03:08:49;;;;;;;;;;;;;;;;;;2099930;27;3774;-72
2021/10/08 03:09:49;;;;;;;;;;;;;;;;;;2097158;28;5212;-71
2021/10/08 03:10:50;;;;;;;;;;;;;;;;;;2097573;28;4494;-72
2021/10/08 03:11:51;;;;;;;;;;;;;;;;;;2099806;28;4883;-72
2021/10/08 03:12:52;;;;;;;;;;;;;;;;;;2098482;28;4729;-72
2021/10/08 03:13:52;;;;;;;;;;;;;;;;;;2099382;28;4953;-72
2021/10/08 03:14:53;;;;;;;;;;;;;;;;;;2097355;28;4887;-72
2021/10/08 03:15:53;;;;;;;;;;;;;;;;;;2101411;28;2585;-71
2021/10/08 03:16:54;;;;;;;;;;;;;;;;;;2101088;28;2652;-71
2021/10/08 03:17:54;;;;;;;;;;;;;;;;;;2099317;27;5167;-71
2021/10/08 03:18:55;;;;;;;;;;;;;;;;;;2099787;28;4990;-71
2021/10/08 03:19:56;;;;;;;;;;;;;;;;;;2102956;28;1228;-71
2021/10/08 03:20:57;;;;;;;;;;;;;;;;;;2103075;28;1472;-72
2021/10/08 03:21:57;;;;;;;;;;;;;;;;;;2102958;28;1136;-72
2021/10/08 03:22:58;;;;;;;;;;;;;;;;;;2102563;28;4746;-71
2021/10/08 03:23:58;;;;;;;;;;;;;;;;;;2103071;28;5102;-71
2021/10/08 03:24:59;;;;;;;;;;;;;;;;;;2103166;28;4804;-72
2021/10/08 03:25:59;;;;;;;;;;;;;;;;;;2104027;28;1336;-71
2021/10/08 03:27:00;;;;;;;;;;;;;;;;;;2103976;28;1114;-71
2021/10/08 03:28:01;;;;;;;;;;;;;;;;;;2104217;28;1193;-71
2021/10/08 03:29:02;;;;;;;;;;;;;;;;;;2097220;28;4862;-71
2021/10/08 03:30:02;;;;;;;;;;;;;;;;;;2096255;28;1898;-71
2021/10/08 03:31:04;;;;;;;;;;;;;;;;;;2096382;28;1107;-72
2021/10/08 03:32:04;;;;;;;;;;;;;;;;;;2097137;28;1426;-71
2021/10/08 03:33:05;;;;;;;;;;;;;;;;;;2096753;28;1093;-70
2021/10/08 03:34:05;;;;;;;;;;;;;;;;;;2096642;28;1148;-71
2021/10/08 03:35:07;;;;;;;;;;;;;;;;;;2097351;28;1239;-72
2021/10/08 03:36:10;;;;;;;;;;;;;;;;;;2097092;28;1253;-71
2021/10/08 03:37:14;;;;;;;;;;;;;;;;;;2097259;28;1264;-71
2021/10/08 03:38:16;;;;;;;;;;;;;;;;;;2096953;28;1177;-72
2021/10/08 03:39:20;;;;;;;;;;;;;;;;;;2096952;28;1427;-71
2021/10/08 03:40:23;;;;;;;;;;;;;;;;;;2094133;28;1339;-71
2021/10/08 03:42:40;;;;;;;;;;;;;;;;;;2120801;27;1388;-71
2021/10/08 03:43:41;;;;;;;;;;;;;;;;;;2120712;27;1109;-71
2021/10/08 03:44:45;;;;;;;;;;;;;;;;;;2121152;27;1406;-71
2021/10/08 03:45:49;;;;;;;;;;;;;;;;;;2121788;27;1051;-71
2021/10/08 03:46:51;;;;;;;;;;;;;;;;;;2121324;27;1160;-71
2021/10/08 03:47:57;;;;;;;;;;;;;;;;;;2122593;27;2136;-71
2021/10/08 03:49:14;;;;;;;;;;;;;;;;;;2125415;27;1089;-71
2021/10/08 03:50:14;;;;;;;;;;;;;;;;;;2122054;27;1805;-71
2021/10/08 03:51:18;;;;;;;;;;;;;;;;;;2116926;27;1343;-71
2021/10/08 03:52:19;;;;;;;;;;;;;;;;;;2117303;27;1160;-71
2021/10/08 03:53:20;;;;;;;;;;;;;;;;;;2117584;27;1438;-71
2021/10/08 03:54:21;;;;;;;;;;;;;;;;;;2115980;27;1868;-71
2021/10/08 03:55:21;;;;;;;;;;;;;;;;;;2117051;27;1217;-70
2021/10/08 03:56:22;;;;;;;;;;;;;;;;;;2117182;27;1373;-70
2021/10/08 03:57:22;;;;;;;;;;;;;;;;;;2117756;27;1099;-71
2021/10/08 03:58:23;;;;;;;;;;;;;;;;;;2117769;27;1197;-71
2021/10/08 03:59:23;;;;;;;;;;;;;;;;;;2117439;27;1174;-71
2021/10/08 04:00:24;;;;;;;;;;;;;;;;;;2117215;27;1433;-71
2021/10/08 04:01:25;;;;;;;;;;;;;;;;;;2117083;27;1989;-71
2021/10/08 04:02:26;;;;;;;;;;;;;;;;;;2117417;27;1177;-71
2021/10/08 04:03:26;;;;;;;;;;;;;;;;;;2116552;27;3310;-71
2021/10/08 04:04:28;;;;;;;;;;;;;;;;;;2116847;27;1208;-71
2021/10/08 04:05:28;;;;;;;;;;;;;;;;;;2115216;27;1311;-71
2021/10/08 04:06:29;;;;;;;;;;;;;;;;;;2116535;27;1221;-71
2021/10/08 04:07:29;;;;;;;;;;;;;;;;;;2117281;27;1100;-71
2021/10/08 04:08:31;;;;;;;;;;;;;;;;;;2116429;27;1193;-71
2021/10/08 04:09:32;;;;;;;;;;;;;;;;;;2116387;27;1201;-71
2021/10/08 04:10:32;;;;;;;;;;;;;;;;;;2115518;27;1304;-71
2021/10/08 04:11:34;;;;;;;;;;;;;;;;;;2115667;27;1522;-71
2021/10/08 04:12:35;;;;;;;;;;;;;;;;;;2117263;27;1390;-71
2021/10/08 04:13:36;;;;;;;;;;;;;;;;;;2116760;27;1436;-71
2021/10/08 04:14:37;;;;;;;;;;;;;;;;;;2114776;27;1041;-71
2021/10/08 04:15:37;;;;;;;;;;;;;;;;;;2114750;27;1214;-70
2021/10/08 04:16:38;;;;;;;;;;;;;;;;;;2115030;27;1084;-71
2021/10/08 04:17:38;;;;;;;;;;;;;;;;;;2114089;27;4089;-70
2021/10/08 04:18:39;;;;;;;;;;;;;;;;;;2114865;27;1048;-71
2021/10/08 04:19:39;;;;;;;;;;;;;;;;;;2114275;27;1125;-71
2021/10/08 04:20:40;;;;;;;;;;;;;;;;;;2114016;27;1302;-71
2021/10/08 04:21:42;;;;;;;;;;;;;;;;;;2114208;27;1989;-71
2021/10/08 04:22:42;;;;;;;;;;;;;;;;;;2114821;27;2114;-71
2021/10/08 04:23:43;;;;;;;;;;;;;;;;;;2115299;27;1193;-70
2021/10/08 04:24:43;;;;;;;;;;;;;;;;;;2115013;27;1207;-70
2021/10/08 04:25:44;;;;;;;;;;;;;;;;;;2114592;27;1023;-71
2021/10/08 04:26:44;;;;;;;;;;;;;;;;;;2114571;27;1155;-70
2021/10/08 04:27:45;;;;;;;;;;;;;;;;;;2113970;27;1199;-71
2021/10/08 04:28:45;;;;;;;;;;;;;;;;;;2113875;27;1215;-71
2021/10/08 04:29:46;;;;;;;;;;;;;;;;;;2113588;27;1232;-71
2021/10/08 04:30:47;;;;;;;;;;;;;;;;;;2114794;27;1271;-71
2021/10/08 04:31:48;;;;;;;;;;;;;;;;;;2115610;27;1266;-70
2021/10/08 04:32:48;;;;;;;;;;;;;;;;;;2115375;27;1145;-71
2021/10/08 04:33:49;;;;;;;;;;;;;;;;;;2114785;27;1279;-71
2021/10/08 04:34:49;;;;;;;;;;;;;;;;;;2115109;27;1117;-70
2021/10/08 04:35:50;;;;;;;;;;;;;;;;;;2115247;27;1225;-71
2021/10/08 04:36:50;;;;;;;;;;;;;;;;;;2115498;27;1146;-71
2021/10/08 04:37:51;;;;;;;;;;;;;;;;;;2115274;27;1053;-71
2021/10/08 04:38:52;;;;;;;;;;;;;;;;;;2115069;27;1299;-71
2021/10/08 04:39:53;;;;;;;;;;;;;;;;;;2114718;27;1312;-71
2021/10/08 04:40:53;;;;;;;;;;;;;;;;;;2115381;27;1342;-71
2021/10/08 04:41:54;;;;;;;;;;;;;;;;;;2115403;27;2006;-71
2021/10/08 04:42:54;;;;;;;;;;;;;;;;;;2116279;27;1408;-71
2021/10/08 04:43:55;;;;;;;;;;;;;;;;;;2115812;27;1237;-71
2021/10/08 04:44:55;;;;;;;;;;;;;;;;;;2115770;27;1226;-71
2021/10/08 04:45:57;;;;;;;;;;;;;;;;;;2114853;27;1419;-71
2021/10/08 04:46:57;;;;;;;;;;;;;;;;;;2115964;27;1185;-70
2021/10/08 04:47:58;;;;;;;;;;;;;;;;;;2116357;27;1205;-71
2021/10/08 04:48:59;;;;;;;;;;;;;;;;;;2115792;27;1177;-71
2021/10/08 04:49:59;;;;;;;;;;;;;;;;;;2115894;27;1321;-71
2021/10/08 04:51:00;;;;;;;;;;;;;;;;;;2114510;27;1314;-71
2021/10/08 04:52:01;;;;;;;;;;;;;;;;;;2114750;27;1128;-70
2021/10/08 04:53:02;;;;;;;;;;;;;;;;;;2111005;27;1137;-71
2021/10/08 04:54:03;;;;;;;;;;;;;;;;;;2107176;27;1163;-70
2021/10/08 04:55:03;;;;;;;;;;;;;;;;;;2107683;27;1113;-70
2021/10/08 04:56:04;;;;;;;;;;;;;;;;;;2106748;27;1299;-71
2021/10/08 04:57:04;;;;;;;;;;;;;;;;;;2107579;27;1173;-71
2021/10/08 04:58:06;;;;;;;;;;;;;;;;;;2107078;27;1251;-71
2021/10/08 04:59:07;;;;;;;;;;;;;;;;;;2106850;27;3033;-71
2021/10/08 05:00:07;;;;;;;;;;;;;;;;;;2107920;27;1378;-70
2021/10/08 05:01:08;;;;;;;;;;;;;;;;;;2106698;27;1115;-70
2021/10/08 05:02:08;;;;;;;;;;;;;;;;;;2108088;27;1914;-71
2021/10/08 05:03:09;;;;;;;;;;;;;;;;;;2107986;27;1200;-71
2021/10/08 05:04:09;;;;;;;;;;;;;;;;;;2107156;27;1245;-71
2021/10/08 05:05:10;;;;;;;;;;;;;;;;;;2107485;27;1220;-70
2021/10/08 05:06:10;;;;;;;;;;;;;;;;;;2107473;27;1150;-71
2021/10/08 05:07:12;;;;;;;;;;;;;;;;;;2106574;27;1185;-71
2021/10/08 05:08:12;;;;;;;;;;;;;;;;;;2107300;27;1025;-71
2021/10/08 05:09:13;;;;;;;;;;;;;;;;;;2107296;27;1084;-71
2021/10/08 05:10:13;;;;;;;;;;;;;;;;;;2106143;27;4465;-70
2021/10/08 05:11:14;;;;;;;;;;;;;;;;;;2105499;27;5524;-70
2021/10/08 05:12:14;;;;;;;;;;;;;;;;;;2105661;27;4060;-71
2021/10/08 05:13:17;;;;;;;;;;;;;;;;;;2106392;27;5221;-70
2021/10/08 05:14:17;;;;;;;;;;;;;;;;;;2106497;27;1379;-71
2021/10/08 05:15:18;;;;;;;;;;;;;;;;;;2106691;27;5357;-70
2021/10/08 05:16:19;;;;;;;;;;;;;;;;;;2107131;27;1100;-71
2021/10/08 05:17:19;;;;;;;;;;;;;;;;;;2106999;27;4255;-71
2021/10/08 05:18:23;;;;;;;;;;;;;;;;;;2107705;27;4277;-71
2021/10/08 05:19:24;;;;;;;;;;;;;;;;;;2108665;27;5049;-71
2021/10/08 05:20:25;;;;;;;;;;;;;;;;;;2109570;27;1392;-71
2021/10/08 05:21:26;;;;;;;;;;;;;;;;;;2109094;27;1209;-71
2021/10/08 05:22:27;;;;;;;;;;;;;;;;;;2109169;27;1941;-71
2021/10/08 05:23:27;;;;;;;;;;;;;;;;;;2109495;27;1113;-70
2021/10/08 05:24:28;;;;;;;;;;;;;;;;;;2108568;27;5396;-71
2021/10/08 05:25:28;;;;;;;;;;;;;;;;;;2108996;27;5150;-71
2021/10/08 05:26:30;;;;;;;;;;;;;;;;;;2108758;27;5064;-71
2021/10/08 05:27:31;;;;;;;;;;;;;;;;;;2108926;27;1300;-70
2021/10/08 05:28:32;;;;;;;;;;;;;;;;;;2109616;27;1284;-71
2021/10/08 05:29:32;;;;;;;;;;;;;;;;;;2109122;27;1107;-71
2021/10/08 05:30:33;;;;;;;;;;;;;;;;;;2109740;27;4713;-71
2021/10/08 05:31:33;;;;;;;;;;;;;;;;;;2108311;27;5224;-71
2021/10/08 05:32:34;;;;;;;;;;;;;;;;;;2109315;27;5316;-71
2021/10/08 05:33:34;;;;;;;;;;;;;;;;;;2109958;27;1323;-71
2021/10/08 05:34:37;;;;;;;;;;;;;;;;;;2109818;27;1178;-71
2021/10/08 05:35:37;;;;;;;;;;;;;;;;;;2110408;27;1111;-71
2021/10/08 05:36:38;;;;;;;;;;;;;;;;;;2109809;27;5080;-71
2021/10/08 05:37:38;;;;;;;;;;;;;;;;;;2110302;27;1229;-71
2021/10/08 05:38:39;;;;;;;;;;;;;;;;;;2110507;27;1172;-71
2021/10/08 05:39:39;;;;;;;;;;;;;;;;;;2109484;27;2521;-71
2021/10/08 05:40:41;;;;;;;;;;;;;;;;;;2109374;27;4293;-70
2021/10/08 05:41:41;;;;;;;;;;;;;;;;;;2107702;27;4028;-71
2021/10/08 05:42:42;;;;;;;;;;;;;;;;;;2109146;27;1987;-72
2021/10/08 05:43:43;;;;;;;;;;;;;;;;;;2109008;27;4353;-70
2021/10/08 05:44:43;;;;;;;;;;;;;;;;;;2108691;27;1037;-70
2021/10/08 05:45:44;;;;;;;;;;;;;;;;;;2108752;27;1234;-70
2021/10/08 05:46:46;;;;;;;;;;;;;;;;;;2108403;27;2901;-71
2021/10/08 05:47:46;;;;;;;;;;;;;;;;;;2107922;27;3141;-71
2021/10/08 05:48:47;;;;;;;;;;;;;;;;;;2108685;27;3682;-70
2021/10/08 05:49:47;;;;;;;;;;;;;;;;;;2108410;27;3895;-72
2021/10/08 05:50:48;;;;;;;;;;;;;;;;;;2109434;27;1729;-70
2021/10/08 05:51:48;;;;;;;;;;;;;;;;;;2107731;27;3406;-71
2021/10/08 05:52:49;;;;;;;;;;;;;;;;;;2108388;27;1382;-71
2021/10/08 05:53:49;;;;;;;;;;;;;;;;;;2108224;27;2730;-71
2021/10/08 05:54:50;;;;;;;;;;;;;;;;;;2108803;27;1184;-71
2021/10/08 05:55:51;;;;;;;;;;;;;;;;;;2107668;27;3136;-70
2021/10/08 05:56:52;;;;;;;;;;;;;;;;;;2108024;27;3080;-71
2021/10/08 05:57:52;;;;;;;;;;;;;;;;;;2108041;27;1245;-71
2021/10/08 05:58:53;;;;;;;;;;;;;;;;;;2107977;27;3399;-71
2021/10/08 05:59:53;;;;;;;;;;;;;;;;;;2108175;27;3263;-71
2021/10/08 06:00:54;;;;;;;;;;;;;;;;;;2107741;27;4421;-71
2021/10/08 06:01:54;;;;;;;;;;;;;;;;;;2108276;27;4375;-71
2021/10/08 06:02:55;;;;;;;;;;;;;;;;;;2108459;27;1994;-70
2021/10/08 06:03:56;;;;;;;;;;;;;;;;;;2108728;27;1193;-71
2021/10/08 06:04:57;;;;;;;;;;;;;;;;;;2108147;27;1177;-71
2021/10/08 06:05:57;;;;;;;;;;;;;;;;;;2108489;27;4647;-70
2021/10/08 06:06:58;;;;;;;;;;;;;;;;;;2109222;27;1267;-71
2021/10/08 06:07:58;;;;;;;;;;;;;;;;;;2109382;27;1256;-71
2021/10/08 06:08:59;;;;;;;;;;;;;;;;;;2109405;27;1071;-70
2021/10/08 06:09:59;;;;;;;;;;;;;;;;;;2108820;27;1274;-71
2021/10/08 06:11:00;;;;;;;;;;;;;;;;;;2109091;27;1292;-71
2021/10/08 06:12:02;;;;;;;;;;;;;;;;;;2108221;27;3158;-71
2021/10/08 06:13:02;;;;;;;;;;;;;;;;;;2108519;27;3495;-71
2021/10/08 06:14:03;;;;;;;;;;;;;;;;;;2108798;27;2185;-70
2021/10/08 06:15:04;;;;;;;;;;;;;;;;;;2109794;27;3537;-71
2021/10/08 06:16:04;;;;;;;;;;;;;;;;;;2109445;27;3536;-72
2021/10/08 06:17:05;;;;;;;;;;;;;;;;;;2109996;27;4274;-71
2021/10/08 06:18:05;;;;;;;;;;;;;;;;;;2110172;27;1396;-71
2021/10/08 06:19:06;;;;;;;;;;;;;;;;;;2108460;27;3283;-71
2021/10/08 06:20:06;;;;;;;;;;;;;;;;;;2109792;27;3475;-71
2021/10/08 06:21:08;;;;;;;;;;;;;;;;;;2109992;27;1343;-71
2021/10/08 06:22:08;;;;;;;;;;;;;;;;;;2108689;27;1984;-71
2021/10/08 06:23:09;;;;;;;;;;;;;;;;;;2110740;27;1213;-71
2021/10/08 06:24:09;;;;;;;;;;;;;;;;;;2108582;27;3227;-71
2021/10/08 06:25:10;;;;;;;;;;;;;;;;;;2108488;27;1142;-71
2021/10/08 06:26:11;;;;;;;;;;;;;;;;;;2106727;27;2953;-71
2021/10/08 06:27:12;;;;;;;;;;;;;;;;;;2105957;27;4407;-70
2021/10/08 06:28:13;;;;;;;;;;;;;;;;;;2106989;27;3047;-71
2021/10/08 06:29:14;;;;;;;;;;;;;;;;;;2106690;27;3395;-71
2021/10/08 06:30:14;;;;;;;;;;;;;;;;;;2106201;27;3308;-70
2021/10/08 06:31:15;;;;;;;;;;;;;;;;;;2106846;27;3551;-71
2021/10/08 06:32:16;;;;;;;;;;;;;;;;;;2106433;27;1255;-70
2021/10/08 06:33:17;;;;;;;;;;;;;;;;;;2107031;27;1237;-70
2021/10/08 06:34:18;;;;;;;;;;;;;;;;;;2106692;27;2871;-71
2021/10/08 06:35:18;;;;;;;;;;;;;;;;;;2107072;27;1299;-71
2021/10/08 06:36:19;;;;;;;;;;;;;;;;;;2105514;27;1292;-70
2021/10/08 06:37:19;;;;;;;;;;;;;;;;;;2106757;27;1163;-70
2021/10/08 06:38:20;;;;;;;;;;;;;;;;;;2106553;27;2174;-71
2021/10/08 06:39:21;;;;;;;;;;;;;;;;;;2106658;27;3946;-71
2021/10/08 06:40:21;;;;;;;;;;;;;;;;;;2105908;27;4305;-71
2021/10/08 06:41:22;;;;;;;;;;;;;;;;;;2106323;27;1411;-71
2021/10/08 06:42:25;;;;;;;;;;;;;;;;;;2107189;27;2024;-71
2021/10/08 06:43:25;;;;;;;;;;;;;;;;;;2106721;27;1110;-71
2021/10/08 06:44:26;;;;;;;;;;;;;;;;;;2107712;27;1091;-71
2021/10/08 06:45:26;;;;;;;;;;;;;;;;;;2106175;27;3242;-71
2021/10/08 06:46:27;;;;;;;;;;;;;;;;;;2106853;27;1101;-71
2021/10/08 06:47:27;;;;;;;;;;;;;;;;;;2107426;27;1217;-71
2021/10/08 06:48:28;;;;;;;;;;;;;;;;;;2107867;27;1036;-71
2021/10/08 06:49:29;;;;;;;;;;;;;;;;;;2106960;27;3422;-71
2021/10/08 06:50:29;;;;;;;;;;;;;;;;;;2107400;27;1294;-70
2021/10/08 06:51:31;;;;;;;;;;;;;;;;;;2106527;27;3378;-70
2021/10/08 06:52:31;;;;;;;;;;;;;;;;;;2106275;27;4182;-71
2021/10/08 06:53:32;;;;;;;;;;;;;;;;;;2106755;27;1141;-70
2021/10/08 06:54:32;;;;;;;;;;;;;;;;;;2106731;27;1093;-71
2021/10/08 06:55:33;;;;;;;;;;;;;;;;;;2104755;27;2811;-72
2021/10/08 06:56:34;;;;;;;;;;;;;;;;;;2106260;27;1145;-71
2021/10/08 06:57:35;;;;;;;;;;;;;;;;;;2107583;27;3243;-71
2021/10/08 06:58:36;;;;;;;;;;;;;;;;;;2106411;27;3476;-72
2021/10/08 06:59:36;;;;;;;;;;;;;;;;;;2108882;27;2827;-71
2021/10/08 07:00:37;;;;;;;;;;;;;;;;;;2108297;27;3499;-71
2021/10/08 07:01:37;;;;;;;;;;;;;;;;;;2109197;27;1289;-70
2021/10/08 07:02:38;;;;;;;;;;;;;;;;;;2108678;27;3478;-71
2021/10/08 07:03:39;;;;;;;;;;;;;;;;;;2108881;27;2908;-71